»·PEaware :: N385Q KSBA-KBUR

N385Q :: KSBA-KBUR

FLIGHT INFORMATION

Flight Status: Arrived
Operator: Privately registered:
United States
More flights under this callsign
Pilot: Kent B. (20764)
Aircraft: CESSNA 172 SKYHAWK
(C172)
More flights by this aircraft type
Origin: KSBA Santa Barbara Mun
United States
Destination: KBUR Bob Hope-Burbank
United States
More flights between these airports :: More routes between these airports
Route: +
File this flight plan on PilotEdge
Remarks:
Altitude:
(Current/Filed)
0ft
Speed:
(Current/Filed)
0kts
Departed: 01-Feb-19 11:42 AM
Arrived: 01-Feb-19 12:29 PM
Distance/Time
Traveled:
75nm/0:47
Distance/Time
To Go:
Arrived

Flight Plot

Page will automatically refresh every two minutes.


Map Options




Map Legend


Flown Route
Filed Route
Departure Airport
Arrival Airport
Navaid (VOR, NDB)
Fix

Horizontal Profiles

Position Reports

Time Latitude Longitude Heading Altitude Ground
Speed
01-Feb-19 11:31 34.422681 -119.835733 271 17ft 0kts
01-Feb-19 11:32 34.422681 -119.835733 271 17ft 0kts
01-Feb-19 11:33 34.422681 -119.835733 271 17ft 0kts
01-Feb-19 11:34 34.422681 -119.835733 271 17ft 0kts
01-Feb-19 11:35 34.422793 -119.837159 303 17ft 4kts
01-Feb-19 11:36 34.424531 -119.837700 344 17ft 11kts
01-Feb-19 11:37 34.426738 -119.837785 84 17ft 3kts
01-Feb-19 11:38 34.426753 -119.835069 88 17ft 6kts
01-Feb-19 11:40 34.427076 -119.834622 359 17ft 0kts
01-Feb-19 11:41 34.427077 -119.834622 359 17ft 0kts
01-Feb-19 11:42 34.427805 -119.837339 268 17ft 53kts
01-Feb-19 11:43 34.427510 -119.864627 269 731ft 92kts
01-Feb-19 11:44 34.427244 -119.898050 264 1442ft 103kts
01-Feb-19 11:45 34.403118 -119.905218 169 2196ft 99kts
01-Feb-19 11:46 34.377922 -119.899825 169 3081ft 86kts
01-Feb-19 11:47 34.355958 -119.895009 167 3892ft 81kts
01-Feb-19 11:48 34.337277 -119.878396 133 4604ft 87kts
01-Feb-19 11:49 34.320084 -119.856783 133 5306ft 90kts
01-Feb-19 11:50 34.309178 -119.824153 93 5485ft 124kts
01-Feb-19 11:51 34.308805 -119.781539 89 5485ft 122kts
01-Feb-19 11:52 34.308886 -119.741611 89 5480ft 116kts
01-Feb-19 11:53 34.308973 -119.702386 89 5481ft 118kts
01-Feb-19 11:54 34.309039 -119.662207 89 5483ft 120kts
01-Feb-19 11:55 34.309088 -119.621826 89 5482ft 119kts
01-Feb-19 11:56 34.309118 -119.582028 89 5483ft 117kts
01-Feb-19 11:57 34.309147 -119.542129 89 5483ft 119kts
01-Feb-19 11:58 34.310089 -119.501965 84 5483ft 119kts
01-Feb-19 11:58 34.312678 -119.468615 84 5483ft 119kts
01-Feb-19 11:59 34.315778 -119.428532 84 5483ft 119kts
01-Feb-19 12:00 34.318868 -119.388373 84 5483ft 119kts
01-Feb-19 12:01 34.321941 -119.348258 84 5483ft 119kts
01-Feb-19 12:02 34.325004 -119.308081 84 5483ft 119kts
01-Feb-19 12:04 34.328560 -119.261246 84 5483ft 119kts
01-Feb-19 12:05 34.331601 -119.221192 84 5483ft 119kts
01-Feb-19 12:05 34.334130 -119.187745 84 5483ft 119kts
01-Feb-19 12:06 34.337134 -119.147689 84 5483ft 119kts
01-Feb-19 12:07 34.340127 -119.107567 84 5483ft 119kts
01-Feb-19 12:08 34.343108 -119.067403 84 5483ft 119kts
01-Feb-19 12:09 34.346080 -119.027196 84 5483ft 119kts
01-Feb-19 12:10 34.349036 -118.987024 84 5483ft 119kts
01-Feb-19 12:11 34.351960 -118.947020 84 5482ft 118kts
01-Feb-19 12:12 34.354802 -118.907701 84 5483ft 117kts
01-Feb-19 12:13 34.350603 -118.870155 123 5483ft 116kts
01-Feb-19 12:14 34.331951 -118.838048 124 5483ft 116kts
01-Feb-19 12:15 34.313315 -118.805763 124 5483ft 117kts
01-Feb-19 12:16 34.294501 -118.773126 124 5483ft 118kts
01-Feb-19 12:17 34.275634 -118.740428 124 5483ft 118kts
01-Feb-19 12:18 34.256768 -118.707764 124 5483ft 118kts
01-Feb-19 12:19 34.237861 -118.675057 124 5483ft 118kts
01-Feb-19 12:20 34.218949 -118.642371 124 5483ft 118kts
01-Feb-19 12:21 34.201318 -118.609033 99 5482ft 118kts
01-Feb-19 12:22 34.200364 -118.564838 90 4862ft 139kts
01-Feb-19 12:23 34.199793 -118.518727 90 3915ft 128kts
01-Feb-19 12:24 34.199322 -118.478698 90 3184ft 112kts
01-Feb-19 12:25 34.198789 -118.438657 90 2492ft 122kts
01-Feb-19 12:26 34.198363 -118.403504 90 1600ft 93kts
01-Feb-19 12:27 34.198122 -118.378077 89 1086ft 65kts
01-Feb-19 12:28 34.197814 -118.362456 90 781ft 20kts
01-Feb-19 12:29 34.198709 -118.360358 15 781ft 4kts
01-Feb-19 12:30 34.199509 -118.358208 295 781ft 8kts
01-Feb-19 12:31 34.199881 -118.358850 264 781ft 0kts
01-Feb-19 12:32 34.199914 -118.358892 347 781ft 0kts
01-Feb-19 12:33 34.199986 -118.358937 326 781ft 0kts
01-Feb-19 12:34 34.199986 -118.358937 326 781ft 0kts
01-Feb-19 12:35 34.199986 -118.358937 326 781ft 0kts
01-Feb-19 12:36 34.199986 -118.358937 326 781ft 0kts
01-Feb-19 12:37 34.199986 -118.358937 326 781ft 0kts
01-Feb-19 12:38 34.199986 -118.358937 326 781ft 0kts
01-Feb-19 12:39 34.199986 -118.358937 326 781ft 0kts
01-Feb-19 12:40 34.199986 -118.358937 326 781ft 0kts
01-Feb-19 12:41 34.199986 -118.358937 326 781ft 0kts

Navigation Log

Ident Type
Flight plan parsing failed, navigation log unavailable